Time;durP1;ratioP1;P1;durP2;ratioP2;P2;SDS_P1;SDS_P2;PMS_P1;PMS_P2;Temp;Humidity;BMP_temperature;BMP_pressure;BME280_temperature;BME280_humidity;BME280_pressure;Samples;Min_cycle;Max_cycle;Signal;HPM_P1;HPM_P2
2023/03/20 00:00:46;;;;;;;5.10;4.50;;;6.90;77.30;;;;;;4975362;28;20196;-74
2023/03/20 00:03:12;;;;;;;7.70;3.73;;;6.90;77.50;;;;;;4979433;28;20749;-74
2023/03/20 00:05:39;;;;;;;5.40;3.77;;;6.90;77.50;;;;;;4977812;28;20186;-75
2023/03/20 00:08:06;;;;;;;7.63;3.97;;;6.90;77.60;;;;;;4977797;28;20741;-75
2023/03/20 00:10:35;;;;;;;7.73;4.97;;;6.80;77.50;;;;;;4976232;28;20272;-75
2023/03/20 00:13:02;;;;;;;6.23;4.77;;;6.80;77.70;;;;;;4973607;28;20248;-75
2023/03/20 00:15:40;;;;;;;4.63;4.20;;;6.80;77.70;;;;;;4975824;28;20192;-75
2023/03/20 00:18:18;;;;;;;4.57;3.87;;;6.80;77.60;;;;;;4976563;28;20268;-75
2023/03/20 00:20:49;;;;;;;6.17;3.53;;;6.70;77.70;;;;;;4976314;28;21331;-75
2023/03/20 00:23:16;;;;;;;8.33;3.93;;;6.70;77.60;;;;;;4975372;28;20639;-75
2023/03/20 00:25:43;;;;;;;4.83;3.73;;;6.70;77.90;;;;;;4976238;28;20553;-74
2023/03/20 00:28:40;;;;;;;6.93;4.77;;;6.70;78.00;;;;;;4974576;28;20210;-74
2023/03/20 00:31:24;;;;;;;7.60;4.37;;;6.60;77.90;;;;;;4972695;28;20240;-74
2023/03/20 00:33:51;;;;;;;8.27;4.13;;;6.60;78.00;;;;;;4976425;28;20205;-74
2023/03/20 00:36:16;;;;;;;5.37;3.60;;;6.60;77.50;;;;;;4977824;28;20739;-74
2023/03/20 00:38:42;;;;;;;4.60;3.93;;;6.60;77.70;;;;;;4976853;28;20191;-74
2023/03/20 00:41:31;;;;;;;7.10;4.53;;;6.60;78.10;;;;;;4978316;28;20208;-74
2023/03/20 00:44:03;;;;;;;3.93;3.63;;;6.50;78.30;;;;;;4977710;28;20245;-74
2023/03/20 00:46:33;;;;;;;3.40;3.10;;;6.50;78.30;;;;;;4980644;28;20259;-74
2023/03/20 00:48:58;;;;;;;6.20;3.77;;;6.50;78.20;;;;;;4972733;28;20309;-74
2023/03/20 00:51:24;;;;;;;4.80;3.30;;;6.50;78.30;;;;;;4975322;28;20269;-74
2023/03/20 00:53:50;;;;;;;6.23;3.73;;;6.50;78.40;;;;;;4979013;28;20189;-75
2023/03/20 00:56:48;;;;;;;10.03;3.80;;;6.40;78.60;;;;;;4978735;28;20572;-75
2023/03/20 00:59:18;;;;;;;3.77;3.20;;;6.40;78.40;;;;;;4976027;28;20229;-75
2023/03/20 01:01:44;;;;;;;5.47;3.77;;;6.40;78.60;;;;;;4978468;28;20683;-74
2023/03/20 01:04:15;;;;;;;5.80;3.67;;;6.30;78.80;;;;;;4976595;28;20185;-74
2023/03/20 01:06:42;;;;;;;7.03;3.10;;;6.30;78.80;;;;;;4975972;28;20193;-74
2023/03/20 01:09:08;;;;;;;6.33;4.13;;;6.30;78.90;;;;;;4974653;28;20228;-76
2023/03/20 01:11:34;;;;;;;7.17;3.73;;;6.30;78.90;;;;;;4974987;28;20196;-73
2023/03/20 01:14:01;;;;;;;6.70;4.30;;;6.30;79.00;;;;;;4974117;28;20923;-75
2023/03/20 01:16:26;;;;;;;5.10;3.60;;;6.20;79.10;;;;;;4976075;28;20730;-74
2023/03/20 01:18:53;;;;;;;4.97;3.77;;;6.20;79.10;;;;;;4975105;28;20190;-74
2023/03/20 01:21:20;;;;;;;5.57;4.03;;;6.20;79.20;;;;;;4976501;28;20248;-74
2023/03/20 01:23:46;;;;;;;9.03;4.57;;;6.20;79.30;;;;;;4978501;28;20350;-75
2023/03/20 01:26:31;;;;;;;4.10;3.70;;;6.20;79.20;;;;;;4977959;28;20185;-75
2023/03/20 01:28:57;;;;;;;4.00;3.67;;;6.10;79.20;;;;;;4977865;28;20795;-75
2023/03/20 01:31:22;;;;;;;3.87;3.57;;;6.10;79.40;;;;;;4976359;28;20189;-75
2023/03/20 01:33:48;;;;;;;5.47;3.93;;;6.10;79.60;;;;;;4977620;28;20206;-76
2023/03/20 01:36:16;;;;;;;4.13;3.53;;;6.00;79.50;;;;;;4978013;28;20630;-74
2023/03/20 01:38:42;;;;;;;4.13;2.73;;;6.00;79.60;;;;;;4977789;28;20276;-75
2023/03/20 01:41:09;;;;;;;3.00;2.80;;;6.00;79.70;;;;;;4977177;28;20195;-75
2023/03/20 01:43:34;;;;;;;7.43;3.63;;;6.00;79.70;;;;;;4976353;28;20198;-75
2023/03/20 01:46:02;;;;;;;3.97;3.37;;;5.90;79.80;;;;;;4971305;28;20249;-75
2023/03/20 01:48:57;;;;;;;5.30;3.37;;;5.90;79.70;;;;;;4976425;28;20210;-74
2023/03/20 01:51:25;;;;;;;3.97;2.67;;;5.90;79.60;;;;;;4946450;28;20281;-75
2023/03/20 01:54:03;;;;;;;3.13;2.93;;;5.90;79.80;;;;;;4951360;28;20217;-75
2023/03/20 01:56:36;;;;;;;6.37;2.87;;;5.80;79.80;;;;;;4948512;28;20199;-75
2023/03/20 01:59:30;;;;;;;3.47;3.17;;;5.80;80.00;;;;;;4946688;28;20183;-76
2023/03/20 02:01:56;;;;;;;2.93;2.70;;;5.80;79.90;;;;;;4943606;28;20206;-76
2023/03/20 02:04:28;;;;;;;2.77;2.53;;;5.70;80.30;;;;;;4950114;28;20270;-75
2023/03/20 02:06:54;;;;;;;3.33;3.07;;;5.70;80.40;;;;;;4947309;28;20262;-75
2023/03/20 02:09:20;;;;;;;5.77;3.77;;;5.70;80.20;;;;;;4950455;28;20226;-75
2023/03/20 02:11:47;;;;;;;8.77;4.33;;;5.70;80.40;;;;;;4947007;28;20209;-75
2023/03/20 02:14:13;;;;;;;4.27;3.80;;;5.70;80.80;;;;;;4948108;28;20179;-75
2023/03/20 02:16:39;;;;;;;3.93;3.63;;;5.60;80.90;;;;;;4947138;28;20191;-74
2023/03/20 02:19:14;;;;;;;4.00;3.47;;;5.60;81.10;;;;;;4933376;28;20190;-75
2023/03/20 02:22:07;;;;;;;3.67;2.57;;;5.50;81.30;;;;;;4951158;28;20193;-75
2023/03/20 02:25:01;;;;;;;4.30;3.07;;;5.50;81.40;;;;;;4949626;28;20662;-75
2023/03/20 02:27:43;;;;;;;4.53;3.20;;;5.50;81.40;;;;;;4951536;28;20195;-75
2023/03/20 02:30:30;;;;;;;3.43;3.07;;;5.40;81.50;;;;;;4976093;28;20193;-75
2023/03/20 02:33:33;;;;;;;6.97;2.87;;;5.40;81.40;;;;;;4979795;28;20419;-75
2023/03/20 02:36:01;;;;;;;3.77;3.30;;;5.40;81.30;;;;;;4975850;28;20185;-75
2023/03/20 02:38:53;;;;;;;3.27;2.70;;;5.40;81.40;;;;;;4974563;28;20189;-75
2023/03/20 02:41:24;;;;;;;2.57;2.20;;;5.40;81.30;;;;;;4976298;28;20195;-74
2023/03/20 02:44:28;;;;;;;2.40;2.23;;;5.40;81.40;;;;;;4974041;28;20197;-75
2023/03/20 02:47:00;;;;;;;3.50;2.40;;;5.30;81.40;;;;;;4976264;28;20229;-75
2023/03/20 02:49:40;;;;;;;5.53;2.60;;;5.30;81.60;;;;;;4979979;28;20224;-75
2023/03/20 02:52:34;;;;;;;2.53;2.33;;;5.30;81.20;;;;;;4974733;28;20251;-75
2023/03/20 02:55:32;;;;;;;4.37;2.97;;;5.20;81.10;;;;;;4981527;28;20650;-75
2023/03/20 02:58:35;;;;;;;4.43;4.03;;;5.20;81.70;;;;;;4925752;29;20246;-75
2023/03/20 03:01:20;;;;;;;3.27;3.07;;;5.10;82.40;;;;;;4868380;29;20669;-75
2023/03/20 03:03:56;;;;;;;3.43;3.03;;;5.10;82.50;;;;;;4871752;29;20197;-74
2023/03/20 03:06:31;;;;;;;3.03;2.77;;;5.10;82.70;;;;;;4863452;29;20205;-74
2023/03/20 03:09:05;;;;;;;3.27;2.37;;;5.10;82.50;;;;;;4858241;29;20276;-74
2023/03/20 03:11:38;;;;;;;2.47;2.27;;;5.00;82.60;;;;;;4855799;29;20206;-74
2023/03/20 03:14:06;;;;;;;1.73;1.73;;;5.00;82.40;;;;;;4863686;29;20205;-74
2023/03/20 03:16:35;;;;;;;3.57;2.43;;;5.00;82.70;;;;;;4863603;29;20246;-75
2023/03/20 03:19:23;;;;;;;2.33;2.23;;;5.00;82.80;;;;;;4864261;29;20220;-75
2023/03/20 03:21:50;;;;;;;2.93;1.77;;;5.00;83.20;;;;;;4870343;29;21631;-75
2023/03/20 03:24:50;;;;;;;2.97;2.07;;;5.00;83.10;;;;;;4867750;29;20299;-75
2023/03/20 03:27:34;;;;;;;5.13;2.43;;;5.00;82.90;;;;;;4831585;29;20274;-75
2023/03/20 03:30:26;;;;;;;2.53;2.30;;;5.00;83.20;;;;;;4833000;29;21422;-75
2023/03/20 03:33:20;;;;;;;4.47;1.67;;;5.00;83.00;;;;;;4826305;29;20221;-74
2023/03/20 03:35:48;;;;;;;2.10;1.90;;;5.00;82.80;;;;;;4807197;29;20594;-75
2023/03/20 03:38:38;;;;;;;2.43;2.23;;;5.00;83.00;;;;;;4831329;29;20699;-75
2023/03/20 03:41:12;;;;;;;4.00;2.80;;;5.00;82.90;;;;;;4840201;29;20221;-75
2023/03/20 03:44:03;;;;;;;2.70;1.90;;;5.00;82.80;;;;;;4844179;29;20210;-75
2023/03/20 03:47:01;;;;;;;3.93;2.10;;;4.90;83.00;;;;;;4839803;29;20230;-75
2023/03/20 03:49:33;;;;;;;2.20;1.97;;;4.90;83.20;;;;;;4814009;29;20228;-76
2023/03/20 03:52:06;;;;;;;2.67;2.43;;;4.90;83.40;;;;;;4811643;29;20271;-75
2023/03/20 03:54:40;;;;;;;2.30;2.10;;;4.90;83.40;;;;;;4808746;29;20223;-75
2023/03/20 03:57:07;;;;;;;2.57;2.37;;;4.80;83.40;;;;;;4810599;29;20318;-75
2023/03/20 03:59:40;;;;;;;5.97;2.20;;;4.80;83.30;;;;;;4813556;29;20277;-75
2023/03/20 04:02:07;;;;;;;3.90;2.60;;;4.80;83.20;;;;;;4817448;29;20213;-75
2023/03/20 04:04:37;;;;;;;11.37;2.33;;;4.80;83.50;;;;;;4859832;29;20205;-75
2023/03/20 04:07:03;;;;;;;2.67;2.47;;;4.80;83.40;;;;;;4864472;29;20204;-76
2023/03/20 04:09:29;;;;;;;2.63;2.43;;;4.70;83.80;;;;;;4842856;29;20542;-76
2023/03/20 04:11:55;;;;;;;6.37;2.80;;;4.70;83.80;;;;;;4863059;29;20201;-74
2023/03/20 04:14:21;;;;;;;7.90;3.43;;;4.70;83.80;;;;;;4926247;29;20351;-74
2023/03/20 04:16:46;;;;;;;5.17;2.50;;;4.70;84.00;;;;;;4925718;29;20303;-76
2023/03/20 04:19:12;;;;;;;3.93;3.30;;;4.70;84.00;;;;;;4924958;29;20195;-74
2023/03/20 04:21:38;;;;;;;3.73;3.07;;;4.70;83.80;;;;;;4925826;29;20674;-74
2023/03/20 04:24:04;;;;;;;2.73;2.23;;;4.70;83.80;;;;;;4926205;29;20637;-74
2023/03/20 04:26:30;;;;;;;5.03;3.27;;;4.70;83.80;;;;;;4966084;28;20268;-75
2023/03/20 04:28:56;;;;;;;5.27;2.73;;;4.70;84.00;;;;;;4979897;28;20209;-74
2023/03/20 04:31:22;;;;;;;4.67;3.67;;;4.70;84.00;;;;;;4978712;28;20206;-74
2023/03/20 04:33:47;;;;;;;8.80;4.53;;;4.80;83.80;;;;;;4978074;28;20655;-73
2023/03/20 04:36:13;;;;;;;5.47;3.70;;;4.80;84.10;;;;;;4980609;28;20189;-75
2023/03/20 04:38:40;;;;;;;8.33;4.60;;;4.70;84.10;;;;;;4973841;28;20187;-75
2023/03/20 04:41:06;;;;;;;6.07;4.30;;;4.70;84.20;;;;;;4979048;28;20190;-75
2023/03/20 04:43:32;;;;;;;5.13;3.67;;;4.70;84.10;;;;;;4978114;28;20208;-75
2023/03/20 04:45:58;;;;;;;4.60;4.07;;;4.80;84.10;;;;;;4979215;28;20680;-75
2023/03/20 04:48:24;;;;;;;6.20;3.80;;;4.80;84.30;;;;;;4976537;28;20222;-75
2023/03/20 04:50:49;;;;;;;5.80;4.13;;;4.70;84.40;;;;;;4976782;28;20186;-75
2023/03/20 04:53:17;;;;;;;4.87;3.97;;;4.80;84.40;;;;;;4975572;28;20213;-75
2023/03/20 04:55:44;;;;;;;8.43;4.27;;;4.80;84.40;;;;;;4975321;28;20601;-77
2023/03/20 04:58:10;;;;;;;4.73;3.93;;;4.80;84.40;;;;;;4981092;28;20185;-74
2023/03/20 05:00:36;;;;;;;7.83;4.37;;;4.80;84.50;;;;;;4976320;28;20573;-74
2023/03/20 05:03:01;;;;;;;5.03;3.93;;;4.80;84.50;;;;;;4976541;28;20203;-73
2023/03/20 05:05:28;;;;;;;7.60;4.37;;;4.80;84.60;;;;;;4975920;28;20762;-73
2023/03/20 05:07:54;;;;;;;5.40;4.30;;;4.90;84.60;;;;;;4976072;28;20226;-74
2023/03/20 05:10:19;;;;;;;4.53;3.70;;;4.90;84.70;;;;;;4980909;28;20192;-73
2023/03/20 05:12:46;;;;;;;7.40;4.03;;;4.90;84.60;;;;;;4975866;28;20217;-75
2023/03/20 05:15:12;;;;;;;5.67;4.37;;;4.90;84.70;;;;;;4977860;28;20276;-75
2023/03/20 05:17:38;;;;;;;5.97;4.07;;;4.90;84.70;;;;;;4977018;28;20258;-75
2023/03/20 05:20:04;;;;;;;5.47;4.03;;;5.00;84.70;;;;;;4977304;28;20186;-76
2023/03/20 05:22:30;;;;;;;7.13;4.10;;;5.00;84.70;;;;;;4973046;28;20183;-75
2023/03/20 05:24:56;;;;;;;5.37;4.07;;;5.10;84.60;;;;;;4979033;28;20686;-76
2023/03/20 05:27:21;;;;;;;7.37;4.03;;;5.10;84.50;;;;;;4978416;28;20186;-73
2023/03/20 05:29:47;;;;;;;5.93;5.00;;;5.20;84.30;;;;;;4978048;28;20206;-74
2023/03/20 05:32:13;;;;;;;4.30;3.87;;;5.20;84.20;;;;;;4974138;28;20182;-75
2023/03/20 05:34:38;;;;;;;7.47;3.77;;;5.30;84.00;;;;;;4978385;28;20186;-78
2023/03/20 05:37:04;;;;;;;6.13;4.17;;;5.30;84.00;;;;;;4972305;28;20193;-77
2023/03/20 05:39:30;;;;;;;6.30;4.43;;;5.40;83.90;;;;;;4975828;28;20185;-79
2023/03/20 05:41:55;;;;;;;7.17;4.77;;;5.40;83.90;;;;;;4977400;28;20197;-79
2023/03/20 05:44:21;;;;;;;7.63;4.17;;;5.50;83.90;;;;;;4975631;28;20273;-77
2023/03/20 05:46:47;;;;;;;6.40;4.57;;;5.50;83.90;;;;;;4982272;28;20197;-75
2023/03/20 05:49:12;;;;;;;5.63;4.23;;;5.60;83.80;;;;;;4975034;28;20218;-74
2023/03/20 05:51:38;;;;;;;7.17;4.93;;;5.70;83.70;;;;;;4976249;28;20213;-74
2023/03/20 05:54:04;;;;;;;8.90;5.57;;;5.80;83.60;;;;;;4978661;28;20186;-74
2023/03/20 05:56:30;;;;;;;6.57;4.37;;;5.80;83.40;;;;;;4975669;28;20922;-73
2023/03/20 05:58:55;;;;;;;10.53;5.27;;;5.90;83.30;;;;;;4981287;28;20197;-80
2023/03/20 06:01:21;;;;;;;7.50;5.57;;;6.00;83.20;;;;;;4980305;28;20839;-79
2023/03/20 06:03:47;;;;;;;9.20;4.73;;;6.10;83.10;;;;;;4974865;28;20726;-77
2023/03/20 06:06:14;;;;;;;5.57;4.73;;;6.30;82.60;;;;;;4973580;28;20186;-77
2023/03/20 06:08:40;;;;;;;8.70;5.00;;;6.40;82.70;;;;;;4977008;28;20297;-78
2023/03/20 06:11:06;;;;;;;13.23;5.87;;;6.50;82.70;;;;;;4976612;28;20901;-78
2023/03/20 06:13:32;;;;;;;6.93;5.40;;;6.50;82.10;;;;;;4980645;28;20177;-77
2023/03/20 06:15:57;;;;;;;9.27;5.17;;;6.60;82.10;;;;;;4976740;28;20202;-78
2023/03/20 06:18:23;;;;;;;9.07;6.13;;;6.70;82.10;;;;;;4977727;28;20182;-77
2023/03/20 06:20:53;;;;;;;13.13;6.77;;;6.80;81.90;;;;;;4974636;28;20193;-77
2023/03/20 06:23:19;;;;;;;12.10;6.57;;;6.90;81.30;;;;;;4975493;28;20249;-77
2023/03/20 06:25:45;;;;;;;9.90;6.53;;;7.00;81.00;;;;;;4975240;28;20178;-78
2023/03/20 06:28:11;;;;;;;8.93;6.37;;;7.10;80.80;;;;;;4980478;28;20296;-76
2023/03/20 06:30:37;;;;;;;8.13;6.57;;;7.10;80.60;;;;;;4976494;28;20819;-78
2023/03/20 06:33:05;;;;;;;12.43;6.43;;;7.10;80.60;;;;;;4979082;28;20186;-78
2023/03/20 06:35:30;;;;;;;9.40;5.97;;;7.20;80.20;;;;;;4977865;28;20208;-77
2023/03/20 06:37:57;;;;;;;8.70;5.70;;;7.30;80.30;;;;;;4975966;28;20746;-77
2023/03/20 06:40:23;;;;;;;11.23;7.10;;;7.40;80.30;;;;;;4976445;28;20174;-77
2023/03/20 06:42:48;;;;;;;6.77;5.70;;;7.50;79.90;;;;;;4972878;28;20272;-77
2023/03/20 06:45:14;;;;;;;7.47;5.93;;;7.60;79.70;;;;;;4977431;28;20704;-76
2023/03/20 06:47:40;;;;;;;11.73;6.37;;;7.70;79.70;;;;;;4973143;28;20194;-76
2023/03/20 06:50:07;;;;;;;9.47;5.97;;;7.80;79.30;;;;;;4969422;28;20175;-78
2023/03/20 06:52:32;;;;;;;17.13;6.63;;;7.90;79.00;;;;;;4976689;28;20188;-78
2023/03/20 06:54:58;;;;;;;7.97;6.23;;;8.00;78.50;;;;;;4975413;28;20729;-79
2023/03/20 06:57:23;;;;;;;12.80;6.33;;;8.10;77.80;;;;;;4976635;28;20762;-77
2023/03/20 06:59:49;;;;;;;15.63;7.00;;;8.20;77.80;;;;;;4977862;28;20250;-78
2023/03/20 07:02:15;;;;;;;10.60;6.73;;;8.30;77.40;;;;;;4980721;28;20257;-77
2023/03/20 07:04:41;;;;;;;10.17;6.43;;;8.40;76.50;;;;;;4980502;28;20221;-77
2023/03/20 07:07:07;;;;;;;10.27;6.73;;;8.60;76.40;;;;;;4980027;28;20617;-77
2023/03/20 07:09:33;;;;;;;13.60;7.10;;;8.70;76.40;;;;;;4975650;28;20252;-77
2023/03/20 07:11:59;;;;;;;9.83;6.83;;;8.80;75.50;;;;;;4981181;28;20625;-78
2023/03/20 07:14:25;;;;;;;12.43;6.43;;;9.00;75.20;;;;;;4976547;28;20185;-78
2023/03/20 07:16:50;;;;;;;12.23;6.80;;;9.10;75.10;;;;;;4978497;28;20214;-78
2023/03/20 07:19:17;;;;;;;13.57;7.63;;;9.30;74.70;;;;;;4970681;28;20190;-78
2023/03/20 07:21:43;;;;;;;9.47;6.37;;;9.50;74.00;;;;;;4974224;28;20182;-77
2023/03/20 07:24:09;;;;;;;10.70;6.87;;;9.70;73.50;;;;;;4974771;28;20734;-77
2023/03/20 07:26:34;;;;;;;16.23;7.20;;;9.90;73.20;;;;;;4972475;28;20191;-78
2023/03/20 07:29:00;;;;;;;9.80;6.83;;;10.10;72.80;;;;;;4975622;28;20287;-78
2023/03/20 07:31:31;;;;;;;8.80;6.27;;;10.20;72.10;;;;;;4970596;28;20193;-78
2023/03/20 07:33:56;;;;;;;9.07;6.23;;;10.40;71.80;;;;;;4973345;28;20182;-78
2023/03/20 07:36:22;;;;;;;13.70;6.57;;;10.60;71.40;;;;;;4978786;28;20870;-78
2023/03/20 07:38:48;;;;;;;12.20;6.57;;;10.70;71.20;;;;;;4975176;28;20186;-78
2023/03/20 07:41:14;;;;;;;9.00;6.13;;;10.80;70.90;;;;;;4979220;28;20296;-79
2023/03/20 07:43:40;;;;;;;10.45;5.82;;;10.90;70.70;;;;;;4979268;28;20195;-77
2023/03/20 07:46:07;;;;;;;7.57;6.30;;;11.10;70.70;;;;;;4978866;28;20742;-77
2023/03/20 07:48:35;;;;;;;9.33;5.83;;;11.20;69.90;;;;;;4971171;28;20679;-78
2023/03/20 07:51:01;;;;;;;12.30;5.32;;;11.30;69.60;;;;;;4977042;28;20748;-77
2023/03/20 07:53:26;;;;;;;9.25;6.25;;;11.40;69.60;;;;;;4979027;28;20324;-78
2023/03/20 07:55:52;;;;;;;8.88;6.60;;;11.50;69.50;;;;;;4976783;28;20273;-77
2023/03/20 07:58:18;;;;;;;7.75;5.93;;;11.70;69.10;;;;;;4980249;28;20193;-79
2023/03/20 08:00:44;;;;;;;10.48;5.38;;;11.80;68.30;;;;;;4983077;28;20373;-78
2023/03/20 08:03:10;;;;;;;6.00;5.40;;;11.90;67.80;;;;;;4978563;28;20177;-78
2023/03/20 08:05:35;;;;;;;6.25;4.93;;;12.10;68.20;;;;;;4978939;28;20182;-78
2023/03/20 08:08:01;;;;;;;6.75;5.65;;;12.20;68.50;;;;;;4982199;28;20658;-78
2023/03/20 08:10:27;;;;;;;8.95;6.47;;;12.30;67.60;;;;;;4978750;28;20182;-79
2023/03/20 08:12:52;;;;;;;13.57;6.88;;;12.50;67.20;;;;;;4981793;28;20181;-77
2023/03/20 08:15:18;;;;;;;10.77;6.28;;;12.80;66.60;;;;;;4977795;28;20177;-78
2023/03/20 08:17:44;;;;;;;11.10;6.93;;;13.00;66.30;;;;;;4976753;28;20194;-78
2023/03/20 08:20:13;;;;;;;11.20;7.57;;;13.50;66.00;;;;;;4977854;28;20198;-78
2023/03/20 08:22:38;;;;;;;9.63;6.65;;;13.90;64.50;;;;;;4977737;28;20178;-78
2023/03/20 08:25:05;;;;;;;11.80;7.28;;;14.40;63.70;;;;;;4975437;28;20661;-78
2023/03/20 08:27:30;;;;;;;10.18;7.05;;;15.00;63.00;;;;;;4977278;28;20209;-78
2023/03/20 08:29:56;;;;;;;8.57;6.55;;;15.80;61.40;;;;;;4979538;28;20213;-78
2023/03/20 08:32:22;;;;;;;9.32;7.70;;;16.60;59.60;;;;;;4979465;28;20269;-78
2023/03/20 08:34:47;;;;;;;12.93;8.52;;;17.20;59.10;;;;;;4975975;28;20572;-78
2023/03/20 08:37:14;;;;;;;11.10;8.88;;;17.70;58.60;;;;;;4975228;28;20190;-78
2023/03/20 08:39:40;;;;;;;11.60;8.23;;;18.20;56.50;;;;;;4975541;28;20189;-78
2023/03/20 08:42:06;;;;;;;14.93;8.63;;;18.80;56.00;;;;;;4976083;28;20208;-79
2023/03/20 08:44:32;;;;;;;10.65;8.60;;;19.20;54.60;;;;;;4977416;28;20194;-78
2023/03/20 08:46:57;;;;;;;11.98;7.57;;;19.60;54.20;;;;;;4977132;28;20681;-78
2023/03/20 08:49:23;;;;;;;12.68;8.10;;;20.10;54.20;;;;;;4979223;28;20305;-78
2023/03/20 08:51:49;;;;;;;9.90;7.43;;;20.60;53.90;;;;;;4977784;28;20182;-78
2023/03/20 08:54:17;;;;;;;6.53;5.85;;;21.20;53.10;;;;;;4977016;28;20741;-79
2023/03/20 08:56:44;;;;;;;5.63;5.13;;;21.80;52.10;;;;;;4976748;28;20213;-78
2023/03/20 08:59:10;;;;;;;6.72;6.15;;;22.10;51.10;;;;;;4976763;28;20213;-78
2023/03/20 09:01:37;;;;;;;9.48;5.70;;;22.50;50.10;;;;;;4982781;28;20184;-79
2023/03/20 09:04:03;;;;;;;7.57;5.35;;;23.00;49.90;;;;;;4980616;28;20182;-78
2023/03/20 09:06:29;;;;;;;6.13;5.57;;;23.70;49.70;;;;;;4979035;28;20201;-79
2023/03/20 09:08:56;;;;;;;7.28;6.25;;;24.50;48.30;;;;;;4975465;28;20246;-79
2023/03/20 09:11:22;;;;;;;7.68;6.57;;;25.00;47.10;;;;;;4977102;28;20185;-78
2023/03/20 09:13:48;;;;;;;6.68;5.85;;;25.20;47.60;;;;;;4977027;28;20661;-79
2023/03/20 09:16:14;;;;;;;6.22;5.63;;;25.30;46.40;;;;;;4979962;28;20272;-77
2023/03/20 09:18:39;;;;;;;9.48;6.30;;;25.60;46.70;;;;;;4979929;28;20201;-78
2023/03/20 09:21:05;;;;;;;7.78;5.88;;;26.20;47.50;;;;;;4973428;28;20204;-78
2023/03/20 09:23:31;;;;;;;6.18;5.68;;;26.50;46.50;;;;;;4978551;28;20228;-79
2023/03/20 09:25:57;;;;;;;7.05;6.35;;;26.60;46.60;;;;;;4974441;28;20213;-79
2023/03/20 09:28:23;;;;;;;7.45;6.65;;;26.80;46.00;;;;;;4980384;28;20751;-79
2023/03/20 09:30:53;;;;;;;7.03;6.28;;;26.90;45.30;;;;;;4980073;28;20196;-79
2023/03/20 09:33:19;;;;;;;7.03;6.28;;;27.00;45.30;;;;;;4978047;28;20182;-79
2023/03/20 09:35:45;;;;;;;9.63;6.95;;;27.00;45.80;;;;;;4975229;28;20186;-79
2023/03/20 09:38:12;;;;;;;8.00;6.85;;;27.30;45.90;;;;;;4975890;28;20248;-79
2023/03/20 09:40:52;;;;;;;7.30;6.45;;;27.70;45.30;;;;;;4981423;28;20287;-80
2023/03/20 09:43:44;;;;;;;7.57;6.22;;;28.10;44.70;;;;;;4978156;28;20177;-78
2023/03/20 09:46:20;;;;;;;7.97;6.53;;;28.40;42.60;;;;;;4981526;28;20216;-78
2023/03/20 09:49:02;;;;;;;7.35;5.97;;;28.70;44.60;;;;;;4978097;28;20209;-78
2023/03/20 09:51:40;;;;;;;6.97;6.30;;;29.20;45.00;;;;;;4972788;28;20182;-79
2023/03/20 09:54:21;;;;;;;6.97;6.25;;;29.90;43.80;;;;;;4972428;28;20197;-79
2023/03/20 09:56:47;;;;;;;7.28;6.30;;;30.60;42.20;;;;;;4979601;28;20250;-79
2023/03/20 09:59:16;;;;;;;8.13;6.55;;;30.90;42.10;;;;;;4977340;28;20186;-78
2023/03/20 10:01:46;;;;;;;9.63;6.03;;;31.20;42.30;;;;;;4979480;28;20181;-79
2023/03/20 10:04:12;;;;;;;6.35;5.85;;;31.50;42.90;;;;;;4979114;28;20177;-78
2023/03/20 10:06:38;;;;;;;7.85;6.78;;;31.40;40.40;;;;;;4976536;28;20194;-78
2023/03/20 10:09:19;;;;;;;6.60;5.50;;;31.40;41.90;;;;;;4978047;28;20257;-78
2023/03/20 10:12:05;;;;;;;7.43;6.53;;;31.10;42.20;;;;;;4972224;28;20521;-79
2023/03/20 10:15:04;;;;;;;7.82;6.40;;;31.30;41.50;;;;;;4977332;28;20699;-78
2023/03/20 10:17:52;;;;;;;7.65;6.75;;;31.80;41.00;;;;;;4981357;28;20215;-79
2023/03/20 10:20:38;;;;;;;6.15;5.63;;;32.40;41.70;;;;;;4979148;28;20618;-78
2023/03/20 10:23:12;;;;;;;5.88;5.38;;;33.00;40.60;;;;;;4974961;28;20200;-78
2023/03/20 10:25:44;;;;;;;6.57;6.05;;;33.40;41.40;;;;;;4976944;28;20186;-78
2023/03/20 10:28:15;;;;;;;8.85;6.75;;;33.60;40.50;;;;;;4971785;28;20206;-77
2023/03/20 10:30:50;;;;;;;7.78;6.57;;;33.40;41.30;;;;;;4976578;28;20185;-77
2023/03/20 10:33:27;;;;;;;8.15;7.20;;;32.80;41.70;;;;;;4979067;28;20184;-78
2023/03/20 10:36:18;;;;;;;6.57;5.95;;;32.80;41.30;;;;;;4976833;28;20186;-77
2023/03/20 10:38:54;;;;;;;9.88;6.32;;;32.80;39.50;;;;;;4974261;28;20186;-78
2023/03/20 10:41:24;;;;;;;8.48;6.95;;;33.10;41.50;;;;;;4977721;28;20316;-79
2023/03/20 10:43:51;;;;;;;7.10;6.28;;;33.20;40.60;;;;;;4972423;28;20187;-78
2023/03/20 10:46:30;;;;;;;8.60;6.82;;;33.10;39.90;;;;;;4979839;28;20215;-78
2023/03/20 10:48:59;;;;;;;6.80;6.25;;;32.90;40.10;;;;;;4976699;28;20221;-79
2023/03/20 10:51:37;;;;;;;7.50;6.60;;;33.10;41.20;;;;;;4971764;28;20676;-79
2023/03/20 10:54:05;;;;;;;7.63;6.88;;;33.10;41.20;;;;;;4974786;28;20199;-77
2023/03/20 10:56:39;;;;;;;7.35;6.65;;;33.30;39.70;;;;;;4992616;28;20181;-78
2023/03/20 10:59:23;;;;;;;7.10;6.30;;;33.20;40.60;;;;;;4974462;28;20246;-77
2023/03/20 11:01:50;;;;;;;7.60;6.80;;;33.20;38.80;;;;;;4975747;28;20190;-78
2023/03/20 11:04:15;;;;;;;7.57;6.40;;;33.20;40.70;;;;;;4977235;28;20197;-79
2023/03/20 11:06:48;;;;;;;7.70;6.68;;;33.10;40.70;;;;;;4977478;28;20190;-77
2023/03/20 11:09:22;;;;;;;7.35;6.68;;;33.20;40.70;;;;;;4976664;28;20264;-78
2023/03/20 11:11:51;;;;;;;8.73;6.65;;;33.50;41.20;;;;;;4978360;28;20186;-82
2023/03/20 11:14:25;;;;;;;7.38;6.65;;;34.00;40.50;;;;;;4982828;28;20215;-84
2023/03/20 11:16:59;;;;;;;7.00;6.40;;;34.30;40.00;;;;;;4981069;28;20188;-82
2023/03/20 11:19:24;;;;;;;7.45;5.97;;;34.50;40.80;;;;;;4977364;28;20190;-82
2023/03/20 11:22:00;;;;;;;8.07;7.28;;;34.90;40.70;;;;;;4977265;28;20674;-82
2023/03/20 11:24:35;;;;;;;9.57;7.15;;;35.30;38.40;;;;;;4977637;28;20186;-82
2023/03/20 11:27:10;;;;;;;7.10;6.50;;;35.50;39.60;;;;;;4975137;28;20606;-82
2023/03/20 11:29:38;;;;;;;7.78;6.97;;;35.40;38.70;;;;;;4977069;28;20287;-82
2023/03/20 11:32:34;;;;;;;7.30;6.53;;;34.90;38.70;;;;;;4978900;28;20692;-82
2023/03/20 11:35:19;;;;;;;7.57;6.63;;;34.90;39.50;;;;;;4924920;29;20674;-82
2023/03/20 11:37:47;;;;;;;7.07;6.10;;;35.40;37.70;;;;;;4926253;29;20198;-80
2023/03/20 11:40:14;;;;;;;6.15;5.55;;;35.90;39.10;;;;;;4921964;29;20351;-82
2023/03/20 11:42:59;;;;;;;6.95;5.40;;;36.50;38.30;;;;;;4923050;29;20503;-79
2023/03/20 11:45:27;;;;;;;6.57;5.57;;;36.90;35.10;;;;;;4921038;29;20233;-82
2023/03/20 11:47:56;;;;;;;6.03;5.13;;;37.30;37.80;;;;;;4921981;29;20187;-81
2023/03/20 11:50:36;;;;;;;9.07;5.78;;;37.60;38.40;;;;;;4924740;29;20187;-81
2023/03/20 11:53:18;;;;;;;7.05;5.88;;;37.80;35.30;;;;;;4920993;29;20203;-81
2023/03/20 11:55:57;;;;;;;6.32;5.72;;;37.90;38.00;;;;;;4924843;29;20590;-81
2023/03/20 11:58:23;;;;;;;5.93;5.22;;;38.00;37.70;;;;;;4923641;29;20229;-81
2023/03/20 12:00:52;;;;;;;6.30;5.53;;;38.10;38.10;;;;;;4923127;29;20195;-82
2023/03/20 12:03:41;;;;;;;6.75;5.72;;;38.10;35.80;;;;;;4925886;29;20221;-79
2023/03/20 12:06:15;;;;;;;5.18;4.80;;;37.80;33.60;;;;;;4927010;29;20187;-82
2023/03/20 12:08:45;;;;;;;8.02;4.95;;;37.40;34.50;;;;;;4924474;29;20802;-82
2023/03/20 12:11:41;;;;;;;5.68;5.05;;;36.90;36.90;;;;;;4946278;28;20576;-83
2023/03/20 12:14:16;;;;;;;4.38;4.00;;;36.70;34.10;;;;;;4982620;28;20184;-83
2023/03/20 12:16:42;;;;;;;4.50;4.13;;;36.60;38.10;;;;;;4979374;28;20184;-82
2023/03/20 12:19:29;;;;;;;4.13;3.83;;;36.60;35.60;;;;;;4979735;28;20247;-81
2023/03/20 12:22:24;;;;;;;4.18;3.72;;;36.60;34.50;;;;;;4985132;28;20594;-83
2023/03/20 12:25:14;;;;;;;3.63;3.42;;;36.70;34.80;;;;;;4951583;29;20206;-82
2023/03/20 12:27:47;;;;;;;6.03;3.42;;;36.80;33.90;;;;;;4914270;29;20646;-83
2023/03/20 12:30:21;;;;;;;5.22;2.92;;;36.60;37.70;;;;;;4916597;29;20720;-81
2023/03/20 12:33:19;;;;;;;3.83;3.38;;;36.60;36.60;;;;;;4913196;29;20336;-81
2023/03/20 12:35:48;;;;;;;3.22;3.03;;;36.70;34.00;;;;;;4911583;29;20200;-81
2023/03/20 12:38:26;;;;;;;2.63;2.40;;;36.80;37.80;;;;;;4916453;29;20235;-82
2023/03/20 12:40:57;;;;;;;4.55;2.88;;;36.80;35.40;;;;;;4913714;29;20183;-82
2023/03/20 12:43:48;;;;;;;2.22;2.13;;;36.80;36.80;;;;;;4918112;29;20191;-82
2023/03/20 12:46:36;;;;;;;4.47;2.38;;;36.80;36.60;;;;;;4913197;29;20322;-82
2023/03/20 12:49:23;;;;;;;1.98;1.90;;;36.80;32.80;;;;;;4913158;29;20662;-82
2023/03/20 12:52:07;;;;;;;1.85;1.70;;;36.90;33.20;;;;;;4909055;29;20199;-82
2023/03/20 12:55:16;;;;;;;1.75;1.65;;;36.90;35.00;;;;;;4913570;29;20210;-81
2023/03/20 12:57:53;;;;;;;2.00;1.90;;;37.00;32.60;;;;;;4907585;29;20666;-81
2023/03/20 13:00:22;;;;;;;1.15;1.15;;;37.00;33.10;;;;;;4917171;29;20201;-81
2023/03/20 13:02:55;;;;;;;1.48;1.40;;;36.80;34.80;;;;;;4951688;28;20206;-81
2023/03/20 13:05:26;;;;;;;1.40;1.40;;;36.70;36.20;;;;;;4974442;28;20250;-83
2023/03/20 13:07:54;;;;;;;1.45;1.45;;;36.60;35.00;;;;;;4977409;28;20189;-83
2023/03/20 13:10:22;;;;;;;1.48;1.48;;;36.60;36.20;;;;;;4978558;28;20582;-82
2023/03/20 13:13:24;;;;;;;1.40;1.30;;;36.60;35.00;;;;;;4978405;28;20185;-82